Time;durP1;ratioP1;P1;durP2;ratioP2;P2;SDS_P1;SDS_P2;PMS_P1;PMS_P2;Temp;Humidity;BMP_temperature;BMP_pressure;BME280_temperature;BME280_humidity;BME280_pressure;Samples;Min_cycle;Max_cycle;Signal;HPM_P1;HPM_P2
2022/05/07 00:00:07;;;;;;;10.67;9.97;;;14.00;55.00;;;;;;20915;6723;116913;-74
2022/05/07 00:02:43;;;;;;;10.53;9.73;;;13.80;55.30;;;;;;20936;6720;116931;-74
2022/05/07 00:05:19;;;;;;;9.93;9.33;;;13.70;55.50;;;;;;20959;6717;117662;-75
2022/05/07 00:07:54;;;;;;;12.48;11.57;;;13.50;55.80;;;;;;20667;6732;316757;-74
2022/05/07 00:10:31;;;;;;;12.30;11.50;;;13.80;55.80;;;;;;20658;6732;277676;-74
2022/05/07 00:13:06;;;;;;;11.70;10.90;;;14.20;55.30;;;;;;20912;6732;117235;-74
2022/05/07 00:18:01;;;;;;;13.30;12.25;;;14.10;55.20;;;;;;20703;6717;334601;-74
2022/05/07 00:18:17;;;;;;;12.20;10.97;;;14.20;55.00;;;;;;20877;6792;117470;-75
2022/05/07 00:20:54;;;;;;;10.80;10.00;;;14.10;55.00;;;;;;20823;6732;120966;-74
2022/05/07 00:23:30;;;;;;;11.20;10.37;;;13.80;55.50;;;;;;20907;6732;118937;-74
2022/05/07 00:26:05;;;;;;;13.07;12.18;;;13.60;56.10;;;;;;20671;6732;277710;-75
2022/05/07 00:28:41;;;;;;;13.93;12.93;;;13.80;55.90;;;;;;20739;6717;276323;-74
2022/05/07 00:31:16;;;;;;;12.53;11.53;;;14.10;55.00;;;;;;20838;6717;117257;-74
2022/05/07 00:33:53;;;;;;;13.70;12.63;;;14.10;55.10;;;;;;20717;6718;305659;-75
2022/05/07 00:36:33;;;;;;;12.67;11.67;;;14.10;55.80;;;;;;20947;6718;117734;-74
2022/05/07 00:39:05;;;;;;;12.83;11.83;;;13.90;55.10;;;;;;20884;6738;117812;-74
2022/05/07 00:41:41;;;;;;;14.90;13.80;;;13.60;55.80;;;;;;20466;6756;339182;-74
2022/05/07 00:44:16;;;;;;;15.05;13.75;;;13.70;55.80;;;;;;20716;6724;305915;-74
2022/05/07 00:46:52;;;;;;;13.80;12.80;;;14.00;55.20;;;;;;20711;6729;278068;-74
2022/05/07 00:49:28;;;;;;;14.38;13.15;;;14.40;54.70;;;;;;20745;6714;306324;-75
2022/05/07 00:52:05;;;;;;;14.40;13.20;;;14.40;54.00;;;;;;20565;6717;311880;-75
2022/05/07 00:54:41;;;;;;;14.00;12.90;;;14.60;54.20;;;;;;20720;6718;282093;-74
2022/05/07 00:57:16;;;;;;;12.17;11.27;;;14.60;53.50;;;;;;20969;6714;117636;-74
2022/05/07 00:59:52;;;;;;;14.70;13.52;;;14.30;54.00;;;;;;20770;6703;294838;-74
2022/05/07 01:02:28;;;;;;;14.77;13.67;;;14.20;53.80;;;;;;20746;6717;293224;-74
2022/05/07 01:05:07;;;;;;;14.60;13.40;;;14.40;53.70;;;;;;20736;6717;315589;-75
2022/05/07 01:07:44;;;;;;;15.02;13.82;;;14.60;53.10;;;;;;20694;6720;306549;-74
2022/05/07 01:10:18;;;;;;;14.00;12.90;;;14.60;52.40;;;;;;20700;6714;278719;-74
2022/05/07 01:12:54;;;;;;;12.77;11.77;;;14.70;52.50;;;;;;20951;6717;117300;-74
2022/05/07 01:15:33;;;;;;;12.20;11.20;;;14.40;53.10;;;;;;20987;6702;117300;-74
2022/05/07 01:18:05;;;;;;;13.55;12.57;;;13.90;54.00;;;;;;20708;6723;292505;-74
2022/05/07 01:20:41;;;;;;;13.00;12.02;;;14.00;54.40;;;;;;20650;6723;312677;-75
2022/05/07 01:23:16;;;;;;;12.90;11.93;;;14.30;54.50;;;;;;20893;6738;120780;-75
2022/05/07 01:25:54;;;;;;;13.88;12.88;;;14.10;54.30;;;;;;20648;6738;310567;-74
2022/05/07 01:28:28;;;;;;;13.60;12.57;;;14.10;54.00;;;;;;20947;6719;117259;-74
2022/05/07 01:31:03;;;;;;;14.25;13.25;;;14.00;54.30;;;;;;20684;6704;306602;-74
2022/05/07 01:33:39;;;;;;;14.63;13.53;;;14.00;54.20;;;;;;20735;6709;304957;-74
2022/05/07 01:36:18;;;;;;;15.77;14.37;;;14.40;53.40;;;;;;20767;6722;308745;-74
2022/05/07 01:38:51;;;;;;;15.47;14.20;;;14.40;53.10;;;;;;20763;6707;297574;-74
2022/05/07 01:41:26;;;;;;;13.30;12.00;;;14.50;52.60;;;;;;20809;6710;118661;-74
2022/05/07 01:44:02;;;;;;;13.03;12.00;;;13.70;53.90;;;;;;20953;6710;117133;-74
2022/05/07 01:49:33;;;;;;;13.67;12.47;;;13.30;54.60;;;;;;20934;6708;117213;-74
2022/05/07 01:52:09;;;;;;;14.30;13.23;;;12.90;55.20;;;;;;20467;6725;312847;-75
2022/05/07 01:54:45;;;;;;;13.80;12.70;;;13.10;54.90;;;;;;20658;6742;278162;-74
2022/05/07 01:57:20;;;;;;;14.75;13.52;;;13.40;53.80;;;;;;20617;6753;305968;-75
2022/05/07 01:59:56;;;;;;;15.55;14.25;;;13.70;53.50;;;;;;20638;6738;340680;-74
2022/05/07 02:02:31;;;;;;;15.87;14.43;;;13.90;52.80;;;;;;20664;6738;276591;-75
2022/05/07 02:05:07;;;;;;;14.87;13.47;;;14.00;52.20;;;;;;20726;6721;306006;-75
2022/05/07 02:07:43;;;;;;;14.60;13.40;;;14.00;51.70;;;;;;20602;6750;332337;-74
2022/05/07 02:10:18;;;;;;;14.15;13.02;;;14.00;52.00;;;;;;20613;6745;346133;-74
2022/05/07 02:12:54;;;;;;;13.70;12.77;;;14.00;52.30;;;;;;20663;6738;316301;-74
2022/05/07 02:15:29;;;;;;;13.90;12.90;;;14.00;52.30;;;;;;20659;6738;306693;-75
2022/05/07 02:18:05;;;;;;;13.23;12.23;;;13.90;52.00;;;;;;20700;6723;278069;-75
2022/05/07 02:20:41;;;;;;;11.95;10.98;;;13.90;52.10;;;;;;20645;6723;279191;-75
2022/05/07 02:23:22;;;;;;;12.13;11.23;;;13.80;51.90;;;;;;20750;6708;310381;-74
2022/05/07 02:25:53;;;;;;;12.10;11.20;;;13.80;51.90;;;;;;20697;6723;292703;-75
2022/05/07 02:28:28;;;;;;;11.57;10.77;;;13.80;51.70;;;;;;20921;6725;118574;-76
2022/05/07 02:31:07;;;;;;;11.83;10.83;;;12.90;53.50;;;;;;20886;6708;117672;-75
2022/05/07 02:33:40;;;;;;;11.27;10.23;;;12.90;53.50;;;;;;20926;6723;117815;-74
2022/05/07 02:36:16;;;;;;;10.90;10.00;;;12.60;54.50;;;;;;20857;6744;118209;-75
2022/05/07 02:38:51;;;;;;;11.80;10.70;;;12.30;55.20;;;;;;20933;6723;120875;-74
2022/05/07 02:44:25;;;;;;;13.15;12.27;;;12.00;56.30;;;;;;20724;6717;309343;-74
2022/05/07 02:47:00;;;;;;;12.27;11.30;;;12.70;56.10;;;;;;20633;6717;306099;-74
2022/05/07 02:49:35;;;;;;;12.50;11.70;;;12.70;55.40;;;;;;20681;6717;294721;-74
2022/05/07 02:52:11;;;;;;;11.07;10.37;;;13.00;53.80;;;;;;20722;6774;117813;-75
2022/05/07 02:54:47;;;;;;;13.45;12.45;;;12.80;53.90;;;;;;20672;6732;337671;-75
2022/05/07 02:57:22;;;;;;;13.30;12.45;;;12.80;54.10;;;;;;20679;6736;276268;-74
2022/05/07 02:59:58;;;;;;;12.93;12.03;;;13.10;53.60;;;;;;20716;6717;276351;-74
2022/05/07 03:02:33;;;;;;;11.83;10.83;;;13.20;53.20;;;;;;20954;6717;118405;-75
2022/05/07 03:05:09;;;;;;;11.50;10.50;;;13.00;53.50;;;;;;20906;6717;117343;-75
2022/05/07 03:07:46;;;;;;;11.07;10.10;;;12.60;54.20;;;;;;20912;6717;118550;-74
2022/05/07 03:10:22;;;;;;;12.93;12.03;;;12.30;54.80;;;;;;20701;6717;312909;-74
2022/05/07 03:12:57;;;;;;;12.20;11.30;;;12.40;53.70;;;;;;20780;6703;288508;-74
2022/05/07 03:15:32;;;;;;;10.97;10.07;;;12.70;53.10;;;;;;20928;6723;117250;-74
2022/05/07 03:18:08;;;;;;;11.10;10.38;;;12.50;53.30;;;;;;20656;6738;305712;-74
2022/05/07 03:20:44;;;;;;;12.10;11.30;;;12.70;52.60;;;;;;20596;6738;278875;-74
2022/05/07 03:23:20;;;;;;;11.43;10.52;;;12.70;52.60;;;;;;20756;6708;337978;-74
2022/05/07 03:25:56;;;;;;;10.20;9.50;;;12.80;51.90;;;;;;20966;6708;123015;-75
2022/05/07 03:28:31;;;;;;;12.75;11.18;;;12.60;52.50;;;;;;20742;6708;310188;-74
2022/05/07 03:31:07;;;;;;;11.07;9.93;;;12.50;52.50;;;;;;20847;6723;117190;-74
2022/05/07 03:33:42;;;;;;;10.90;9.43;;;12.30;52.90;;;;;;20970;6720;116905;-74
2022/05/07 03:36:19;;;;;;;10.20;9.50;;;11.90;53.80;;;;;;20941;6723;117771;-74
2022/05/07 03:38:53;;;;;;;12.27;11.10;;;11.70;54.60;;;;;;20664;6738;334760;-74
2022/05/07 03:41:30;;;;;;;9.80;9.20;;;11.70;54.20;;;;;;20785;6738;117621;-74
2022/05/07 03:44:05;;;;;;;10.73;10.00;;;11.80;54.30;;;;;;20799;6753;118720;-74
2022/05/07 03:46:41;;;;;;;12.80;11.80;;;11.60;55.00;;;;;;20680;6730;275694;-74
2022/05/07 03:49:17;;;;;;;12.37;11.50;;;12.00;53.80;;;;;;20640;6747;281470;-74
2022/05/07 03:54:49;;;;;;;10.07;9.27;;;12.30;53.30;;;;;;20971;6596;121419;-74
2022/05/07 03:57:25;;;;;;;12.37;11.47;;;12.10;53.70;;;;;;20616;6753;336804;-74
2022/05/07 04:00:01;;;;;;;10.73;10.03;;;12.10;53.40;;;;;;20583;6753;310017;-74
2022/05/07 04:02:38;;;;;;;9.97;9.37;;;12.30;53.20;;;;;;20910;6723;118162;-74
2022/05/07 04:05:13;;;;;;;11.40;9.17;;;12.10;53.40;;;;;;20879;6738;117416;-74
2022/05/07 04:07:49;;;;;;;28.13;11.03;;;11.90;54.00;;;;;;20642;6738;278764;-75
2022/05/07 04:10:25;;;;;;;11.53;10.43;;;11.90;54.00;;;;;;20678;6723;308316;-73
2022/05/07 04:13:00;;;;;;;14.40;10.97;;;12.20;52.90;;;;;;20777;6703;275728;-74
2022/05/07 04:15:37;;;;;;;13.73;10.32;;;12.40;51.80;;;;;;20774;6703;334772;-74
2022/05/07 04:18:12;;;;;;;41.75;11.27;;;12.50;51.70;;;;;;20765;6702;280699;-74
2022/05/07 04:20:48;;;;;;;25.47;11.30;;;12.60;51.70;;;;;;20703;6703;308042;-74
2022/05/07 04:23:23;;;;;;;37.17;11.87;;;12.60;51.40;;;;;;20771;6706;277330;-74
2022/05/07 04:25:59;;;;;;;25.42;11.43;;;12.70;51.30;;;;;;20754;6703;306091;-74
2022/05/07 04:28:35;;;;;;;13.60;11.43;;;12.70;51.30;;;;;;20741;6711;305573;-74
2022/05/07 04:31:10;;;;;;;18.53;9.93;;;12.70;51.10;;;;;;20838;6718;117242;-73
2022/05/07 04:33:46;;;;;;;54.90;10.57;;;12.30;51.80;;;;;;20977;6703;118683;-74
2022/05/07 04:36:21;;;;;;;13.00;10.60;;;11.90;52.90;;;;;;20718;6721;305408;-75
2022/05/07 04:38:57;;;;;;;15.57;11.32;;;12.00;53.20;;;;;;20734;6716;304597;-74
2022/05/07 04:41:33;;;;;;;23.83;9.27;;;12.20;52.50;;;;;;20798;6728;117132;-74
2022/05/07 04:44:08;;;;;;;15.38;10.90;;;12.10;52.90;;;;;;20673;6732;278340;-74
2022/05/07 04:46:45;;;;;;;24.73;11.33;;;12.40;52.50;;;;;;20690;6732;275540;-74
2022/05/07 04:49:23;;;;;;;11.03;9.50;;;12.40;52.50;;;;;;20941;6717;117227;-72
2022/05/07 04:51:56;;;;;;;10.40;9.50;;;12.20;52.90;;;;;;20723;6732;117569;-74
2022/05/07 04:54:31;;;;;;;12.20;11.30;;;11.90;53.70;;;;;;20766;6702;306444;-74
2022/05/07 04:57:07;;;;;;;10.43;9.63;;;12.10;53.60;;;;;;20958;6717;118062;-72
2022/05/07 04:59:42;;;;;;;10.33;9.43;;;12.00;53.80;;;;;;20874;6732;126889;-73
2022/05/07 05:02:18;;;;;;;9.70;8.97;;;11.80;54.40;;;;;;20775;6715;119157;-75
2022/05/07 05:04:54;;;;;;;10.03;9.27;;;11.60;55.10;;;;;;20915;6717;116710;-74
2022/05/07 05:07:30;;;;;;;9.43;8.77;;;11.50;56.20;;;;;;20943;6722;116863;-74
2022/05/07 05:10:07;;;;;;;11.33;10.57;;;11.40;56.10;;;;;;20648;6732;305625;-77
2022/05/07 05:12:43;;;;;;;11.27;10.37;;;11.80;55.70;;;;;;20889;6732;117130;-77
2022/05/07 05:15:21;;;;;;;11.20;10.50;;;11.90;55.60;;;;;;20681;6732;335947;-75
2022/05/07 05:17:57;;;;;;;10.30;9.60;;;12.20;55.10;;;;;;20849;6738;117608;-76
2022/05/07 05:20:34;;;;;;;9.27;8.67;;;12.20;55.00;;;;;;20828;6738;117573;-79
2022/05/07 05:23:10;;;;;;;10.50;9.80;;;12.40;55.20;;;;;;20755;6708;306467;-77
2022/05/07 05:25:46;;;;;;;9.60;9.00;;;12.40;55.20;;;;;;20911;6723;118301;-76
2022/05/07 05:28:21;;;;;;;11.12;10.25;;;12.40;55.10;;;;;;20669;6738;307099;-79
2022/05/07 05:30:58;;;;;;;10.40;9.80;;;13.00;54.00;;;;;;20600;6738;312797;-77
2022/05/07 05:33:33;;;;;;;9.43;8.67;;;13.00;54.00;;;;;;20922;6727;118243;-80
2022/05/07 05:36:09;;;;;;;9.00;8.40;;;12.90;54.00;;;;;;20902;6726;116976;-76
2022/05/07 05:38:44;;;;;;;9.57;8.87;;;12.70;54.70;;;;;;20936;6723;117409;-78
2022/05/07 05:41:20;;;;;;;10.70;9.90;;;12.50;55.30;;;;;;20629;6723;333863;-81
2022/05/07 05:43:55;;;;;;;10.43;9.50;;;12.70;54.60;;;;;;20944;6712;147053;-78
2022/05/07 05:46:32;;;;;;;10.70;10.00;;;13.00;55.30;;;;;;20720;6723;310129;-78
2022/05/07 05:49:08;;;;;;;9.77;9.07;;;13.00;54.60;;;;;;20825;6753;117418;-76
2022/05/07 05:51:43;;;;;;;11.05;10.25;;;13.00;54.60;;;;;;20516;6737;308425;-76
2022/05/07 05:54:19;;;;;;;11.17;10.47;;;13.50;52.30;;;;;;20712;6726;276369;-73
2022/05/07 05:56:55;;;;;;;10.93;10.10;;;13.50;52.80;;;;;;20668;6741;334548;-75
2022/05/07 05:59:30;;;;;;;10.97;9.73;;;13.80;52.20;;;;;;20893;6738;117379;-73
2022/05/07 06:02:06;;;;;;;10.32;9.55;;;13.60;52.50;;;;;;20528;6723;341870;-73
2022/05/07 06:04:42;;;;;;;9.17;8.50;;;13.70;52.50;;;;;;20932;6723;116987;-73
2022/05/07 06:07:17;;;;;;;8.37;7.77;;;13.60;52.40;;;;;;20927;6723;117057;-75
2022/05/07 06:09:55;;;;;;;9.70;9.10;;;13.40;53.50;;;;;;20356;6764;278052;-74
2022/05/07 06:12:30;;;;;;;9.88;9.18;;;13.60;53.40;;;;;;20712;6723;306151;-76
2022/05/07 06:15:07;;;;;;;10.47;9.70;;;14.00;53.30;;;;;;20720;6723;306091;-80
2022/05/07 06:17:44;;;;;;;9.73;9.07;;;14.60;52.10;;;;;;20693;6723;339303;-81
2022/05/07 06:20:20;;;;;;;9.30;8.70;;;14.50;52.60;;;;;;20899;6723;118290;-73
2022/05/07 06:22:59;;;;;;;9.52;8.82;;;14.40;52.40;;;;;;20713;6723;306577;-74
2022/05/07 06:28:31;;;;;;;9.45;8.85;;;14.60;52.80;;;;;;20704;6742;298231;-79
2022/05/07 06:31:09;;;;;;;9.50;8.85;;;15.30;51.50;;;;;;20619;6729;307532;-78
2022/05/07 06:33:43;;;;;;;9.07;8.40;;;15.30;51.40;;;;;;20885;6732;118212;-74
2022/05/07 06:36:20;;;;;;;8.33;7.73;;;15.40;52.50;;;;;;20901;6732;117602;-75
2022/05/07 06:38:58;;;;;;;8.80;8.27;;;15.60;53.60;;;;;;21000;6703;119070;-74
2022/05/07 06:41:31;;;;;;;8.90;8.40;;;15.90;54.20;;;;;;20603;6718;336683;-74
2022/05/07 06:44:07;;;;;;;9.07;8.40;;;17.50;49.00;;;;;;20747;6712;314454;-71
2022/05/07 06:46:44;;;;;;;9.20;8.60;;;17.50;49.00;;;;;;20717;6727;306581;-70
2022/05/07 06:49:18;;;;;;;9.10;8.40;;;18.20;48.00;;;;;;20724;6727;284866;-73
2022/05/07 06:51:56;;;;;;;8.73;8.18;;;19.20;45.40;;;;;;20553;6731;337956;-72
2022/05/07 06:54:32;;;;;;;8.03;7.43;;;19.10;45.30;;;;;;20896;6736;117421;-76
2022/05/07 06:57:08;;;;;;;9.05;8.32;;;19.20;46.50;;;;;;20753;6711;310500;-74
2022/05/07 06:59:43;;;;;;;8.93;8.33;;;19.30;44.70;;;;;;20738;6711;309556;-74
2022/05/07 07:02:18;;;;;;;7.27;6.67;;;19.60;43.80;;;;;;20790;6726;123606;-74
2022/05/07 07:04:55;;;;;;;7.20;6.70;;;19.20;45.70;;;;;;20950;6717;116689;-74
2022/05/07 07:07:30;;;;;;;8.23;7.73;;;19.20;45.60;;;;;;20675;6732;310312;-75
2022/05/07 07:10:06;;;;;;;8.17;7.57;;;19.30;44.40;;;;;;20863;6732;118989;-76
2022/05/07 07:12:45;;;;;;;8.23;7.72;;;19.30;45.10;;;;;;20794;6702;324394;-76
2022/05/07 07:15:17;;;;;;;8.87;8.27;;;19.40;44.60;;;;;;20737;6717;276696;-73
2022/05/07 07:17:53;;;;;;;7.70;7.20;;;19.50;43.90;;;;;;20891;6732;117274;-73
2022/05/07 07:20:29;;;;;;;7.87;7.37;;;19.50;44.70;;;;;;20629;6733;279656;-73
2022/05/07 07:23:04;;;;;;;8.60;7.77;;;19.50;43.30;;;;;;20781;6707;275880;-73
2022/05/07 07:25:41;;;;;;;8.10;7.60;;;19.90;44.10;;;;;;20774;6707;275729;-75
2022/05/07 07:28:16;;;;;;;7.63;7.03;;;19.90;43.30;;;;;;20952;6722;117003;-73
2022/05/07 07:30:53;;;;;;;7.47;6.97;;;19.70;43.70;;;;;;20866;6722;117699;-78
2022/05/07 07:33:30;;;;;;;7.90;7.40;;;19.40;44.50;;;;;;20726;6722;280423;-72
2022/05/07 07:36:05;;;;;;;7.20;6.70;;;19.60;44.00;;;;;;20919;6717;118852;-72
2022/05/07 07:38:41;;;;;;;7.70;7.18;;;19.60;44.40;;;;;;20768;6703;310839;-72
2022/05/07 07:41:17;;;;;;;7.93;7.23;;;19.80;43.00;;;;;;20874;6707;116885;-72
2022/05/07 07:43:52;;;;;;;7.83;7.23;;;19.90;43.90;;;;;;20964;6703;117293;-72
2022/05/07 07:49:27;;;;;;;6.57;6.17;;;19.70;45.10;;;;;;20936;6722;117041;-72
2022/05/07 07:51:59;;;;;;;8.63;7.17;;;19.70;45.60;;;;;;20721;6732;118053;-72
2022/05/07 07:54:35;;;;;;;7.50;7.00;;;19.90;45.80;;;;;;20690;6732;304919;-72
2022/05/07 07:57:10;;;;;;;7.73;7.10;;;20.40;43.40;;;;;;20694;6734;278085;-72
2022/05/07 07:59:49;;;;;;;7.97;7.40;;;21.60;41.60;;;;;;20725;6717;302978;-72
2022/05/07 08:02:22;;;;;;;7.23;6.73;;;21.50;41.60;;;;;;20756;6774;118455;-72
2022/05/07 08:04:58;;;;;;;7.67;7.07;;;21.60;42.40;;;;;;20705;6729;304360;-72
2022/05/07 08:13:26;;;;;;;7.60;6.90;;;22.40;40.80;;;;;;20886;6738;117045;-72
2022/05/07 08:16:01;;;;;;;8.40;7.90;;;22.30;40.70;;;;;;20874;6743;116906;-72
2022/05/07 08:18:37;;;;;;;8.75;8.15;;;22.10;41.30;;;;;;20700;6729;283112;-72
2022/05/07 08:21:12;;;;;;;8.40;7.80;;;22.30;40.40;;;;;;20596;6719;278515;-72
2022/05/07 08:23:48;;;;;;;9.07;8.43;;;22.70;39.70;;;;;;20700;6721;305644;-73
2022/05/07 08:26:25;;;;;;;8.50;7.90;;;23.00;39.60;;;;;;20729;6721;284252;-72
2022/05/07 08:29:01;;;;;;;10.47;9.60;;;23.40;39.00;;;;;;20741;6714;305196;-72
2022/05/07 08:31:37;;;;;;;9.30;8.70;;;23.30;38.90;;;;;;20553;6732;307763;-73
2022/05/07 08:34:13;;;;;;;9.63;8.83;;;23.20;39.30;;;;;;20887;6732;117466;-71
2022/05/07 08:36:48;;;;;;;8.40;7.80;;;23.20;39.30;;;;;;20886;6734;117085;-72
2022/05/07 08:39:25;;;;;;;9.23;8.70;;;22.90;40.30;;;;;;20898;6732;119105;-72
2022/05/07 08:42:00;;;;;;;9.93;9.23;;;22.80;41.10;;;;;;20780;6714;189254;-72
2022/05/07 08:44:44;;;;;;;10.63;9.93;;;22.60;41.00;;;;;;20748;6717;305820;-72
2022/05/07 08:47:11;;;;;;;10.00;9.13;;;22.80;39.50;;;;;;20953;6717;117129;-73
2022/05/07 08:49:47;;;;;;;10.23;9.57;;;22.90;39.90;;;;;;20976;6702;117956;-72
2022/05/07 08:52:23;;;;;;;11.53;10.47;;;22.70;40.30;;;;;;20711;6789;117636;-72
2022/05/07 08:54:59;;;;;;;10.27;9.63;;;22.60;40.60;;;;;;20898;6732;117779;-71
2022/05/07 08:57:35;;;;;;;10.77;9.87;;;22.60;40.80;;;;;;20963;6722;117103;-71
2022/05/07 09:00:10;;;;;;;10.90;10.13;;;22.60;40.60;;;;;;20740;6717;309792;-71
2022/05/07 09:02:51;;;;;;;10.80;10.10;;;22.80;38.60;;;;;;20709;6717;335000;-71
2022/05/07 09:05:21;;;;;;;11.30;10.27;;;23.20;38.20;;;;;;20946;6717;120106;-71
2022/05/07 09:07:58;;;;;;;10.63;9.93;;;23.50;37.80;;;;;;20722;6717;279253;-71
2022/05/07 09:10:33;;;;;;;10.90;10.02;;;23.50;37.80;;;;;;20625;6732;282342;-70
2022/05/07 09:13:08;;;;;;;9.77;9.13;;;23.80;36.80;;;;;;20938;6732;118159;-71
2022/05/07 09:15:55;;;;;;;10.63;9.63;;;23.70;37.60;;;;;;20721;6717;276191;-72
2022/05/07 09:18:30;;;;;;;11.07;10.47;;;23.70;36.50;;;;;;20765;6711;305205;-74
2022/05/07 09:24:05;;;;;;;10.60;9.80;;;24.20;36.60;;;;;;20676;6726;295216;-72
2022/05/07 09:26:43;;;;;;;9.93;9.13;;;24.40;35.80;;;;;;20690;6733;277258;-72
2022/05/07 09:29:16;;;;;;;8.80;8.20;;;24.60;35.60;;;;;;20926;6721;117175;-72
2022/05/07 09:31:51;;;;;;;9.27;8.67;;;24.50;37.10;;;;;;20704;6729;121712;-72
2022/05/07 09:37:22;;;;;;;9.37;8.63;;;24.30;35.80;;;;;;20887;6738;117142;-74
2022/05/07 09:39:58;;;;;;;9.90;9.00;;;24.20;37.10;;;;;;20652;6738;292789;-74
2022/05/07 09:42:34;;;;;;;8.93;8.23;;;24.30;37.30;;;;;;20703;6732;306625;-74
2022/05/07 09:45:10;;;;;;;8.13;7.50;;;24.60;35.10;;;;;;20680;6738;306389;-76
2022/05/07 09:47:45;;;;;;;7.47;6.83;;;24.80;32.90;;;;;;20869;6738;117348;-74
2022/05/07 09:50:23;;;;;;;7.10;6.60;;;24.60;34.30;;;;;;20642;6734;281883;-75
2022/05/07 09:58:48;;;;;;;8.23;7.60;;;24.80;33.40;;;;;;20724;6723;306912;-72
2022/05/07 10:01:36;;;;;;;6.57;6.07;;;24.90;33.50;;;;;;20809;6723;116882;-74
2022/05/07 10:04:34;;;;;;;4.50;4.30;;;24.70;33.70;;;;;;20922;6723;117349;-72
2022/05/07 10:07:33;;;;;;;6.00;5.50;;;24.20;33.50;;;;;;20762;6723;305600;-78
2022/05/07 10:10:25;;;;;;;3.95;3.53;;;24.10;31.50;;;;;;20682;6723;276720;-74
2022/05/07 10:12:57;;;;;;;3.37;3.10;;;24.20;30.20;;;;;;20767;6707;275221;-73
2022/05/07 10:15:33;;;;;;;3.60;3.30;;;24.30;28.80;;;;;;20729;6721;305329;-75
2022/05/07 10:18:14;;;;;;;4.18;3.78;;;24.40;30.00;;;;;;20690;6732;280334;-75
2022/05/07 10:20:44;;;;;;;3.23;3.03;;;24.50;30.70;;;;;;20879;6717;116871;-73
2022/05/07 10:23:26;;;;;;;3.30;3.10;;;24.50;31.50;;;;;;20685;6732;305800;-74
2022/05/07 10:26:04;;;;;;;3.00;2.70;;;24.60;29.60;;;;;;20873;6734;116893;-74
2022/05/07 10:28:42;;;;;;;3.67;3.23;;;24.50;30.80;;;;;;20663;6734;284333;-72
2022/05/07 10:31:21;;;;;;;4.43;3.73;;;24.60;29.80;;;;;;20790;6732;117070;-73
2022/05/07 10:34:00;;;;;;;3.33;3.12;;;24.50;30.90;;;;;;20716;6717;303588;-70
2022/05/07 10:36:39;;;;;;;3.07;2.87;;;24.50;29.40;;;;;;20940;6717;116611;-71
2022/05/07 10:39:16;;;;;;;3.50;3.30;;;24.50;28.30;;;;;;20690;6732;309748;-75
2022/05/07 10:41:51;;;;;;;3.00;2.80;;;24.50;28.30;;;;;;20510;6738;300985;-73
2022/05/07 10:44:33;;;;;;;4.70;3.60;;;24.60;28.20;;;;;;20925;6723;118079;-71
2022/05/07 10:47:10;;;;;;;4.10;3.80;;;24.50;29.70;;;;;;20621;6753;336645;-73
2022/05/07 10:50:09;;;;;;;4.30;4.00;;;24.50;29.50;;;;;;20581;6753;279029;-75
2022/05/07 10:52:43;;;;;;;3.53;3.30;;;24.60;29.20;;;;;;20704;6723;276487;-74
2022/05/07 10:55:20;;;;;;;3.37;3.10;;;24.50;28.50;;;;;;20720;6723;337606;-72
2022/05/07 10:57:57;;;;;;;5.87;3.37;;;24.40;29.10;;;;;;20860;6740;118213;-73
2022/05/07 11:00:34;;;;;;;4.37;4.03;;;24.10;29.60;;;;;;20622;6738;339302;-71
2022/05/07 11:03:12;;;;;;;4.00;3.70;;;24.00;30.70;;;;;;20707;6727;304899;-72
2022/05/07 11:05:44;;;;;;;4.63;3.93;;;24.00;30.70;;;;;;20646;6741;308753;-75
2022/05/07 11:08:20;;;;;;;4.43;4.13;;;24.20;30.70;;;;;;20920;6727;117145;-73
2022/05/07 11:11:07;;;;;;;4.87;4.37;;;24.00;31.50;;;;;;20624;6727;308033;-73
2022/05/07 11:13:54;;;;;;;4.03;3.73;;;24.00;30.30;;;;;;20927;6717;121191;-73
2022/05/07 11:16:29;;;;;;;4.73;4.33;;;23.90;31.80;;;;;;20742;6717;287929;-72
2022/05/07 11:19:05;;;;;;;4.73;4.20;;;24.00;32.50;;;;;;20908;6732;117514;-71
2022/05/07 11:21:43;;;;;;;4.70;4.30;;;24.00;33.00;;;;;;20488;6753;279558;-75
2022/05/07 11:24:17;;;;;;;4.70;3.83;;;24.50;32.60;;;;;;20743;6718;334855;-72
2022/05/07 11:26:52;;;;;;;6.53;4.03;;;24.50;32.60;;;;;;20900;6733;117480;-72
2022/05/07 11:29:31;;;;;;;4.30;4.00;;;24.60;32.80;;;;;;20686;6733;305609;-72
2022/05/07 11:32:14;;;;;;;4.30;3.90;;;24.80;31.60;;;;;;20808;6718;119005;-73
2022/05/07 11:34:46;;;;;;;4.35;4.05;;;24.90;30.80;;;;;;20738;6718;340182;-73
2022/05/07 11:37:23;;;;;;;4.23;3.83;;;24.90;30.10;;;;;;20957;6718;116826;-73
2022/05/07 11:39:58;;;;;;;4.50;4.20;;;24.90;31.20;;;;;;20714;6718;310509;-74
2022/05/07 11:42:43;;;;;;;4.30;4.00;;;24.90;29.70;;;;;;20954;6718;117304;-75
2022/05/07 11:45:35;;;;;;;4.40;4.10;;;24.70;30.70;;;;;;20723;6720;306445;-72
2022/05/07 11:48:18;;;;;;;6.60;4.50;;;24.60;30.30;;;;;;20937;6718;117689;-73
2022/05/07 11:50:54;;;;;;;4.17;3.87;;;24.40;31.10;;;;;;20920;6703;116723;-73
2022/05/07 11:53:35;;;;;;;3.97;3.67;;;24.00;32.70;;;;;;20996;6703;117782;-73
2022/05/07 11:56:11;;;;;;;4.00;3.70;;;23.70;32.50;;;;;;20966;6705;116880;-72
2022/05/07 11:58:48;;;;;;;3.83;3.57;;;23.70;33.00;;;;;;20944;6720;116905;-75
2022/05/07 12:01:22;;;;;;;3.80;3.60;;;23.70;33.20;;;;;;20710;6733;117483;-75
2022/05/07 12:03:59;;;;;;;3.93;3.40;;;23.80;33.10;;;;;;20706;6718;306179;-75
2022/05/07 12:06:36;;;;;;;3.23;3.03;;;24.50;32.30;;;;;;20931;6718;116888;-74
2022/05/07 12:09:12;;;;;;;3.70;3.40;;;24.50;32.30;;;;;;20739;6718;313844;-75
2022/05/07 12:11:49;;;;;;;3.50;3.23;;;24.80;30.80;;;;;;20635;6703;307348;-76
2022/05/07 12:14:25;;;;;;;3.60;3.27;;;25.30;30.40;;;;;;20937;6718;117957;-76
2022/05/07 12:19:56;;;;;;;3.60;3.40;;;25.30;31.60;;;;;;20622;6746;310732;-74
2022/05/07 12:31:13;;;;;;;3.40;3.10;;;25.20;31.90;;;;;;19946;6816;306513;-75
2022/05/07 12:33:49;;;;;;;3.43;3.10;;;25.50;29.00;;;;;;20960;6703;117461;-75
2022/05/07 12:36:24;;;;;;;3.17;2.87;;;25.50;29.70;;;;;;20993;6703;117549;-75
2022/05/07 12:39:01;;;;;;;3.10;2.90;;;25.40;29.90;;;;;;20743;6703;305202;-75
2022/05/07 12:41:41;;;;;;;3.10;2.90;;;25.30;29.30;;;;;;20639;6703;308057;-81
2022/05/07 12:44:18;;;;;;;2.80;2.43;;;25.70;28.40;;;;;;20970;6705;117060;-75
2022/05/07 12:46:53;;;;;;;4.50;2.90;;;25.70;28.10;;;;;;20732;6705;305974;-75
2022/05/07 12:49:29;;;;;;;3.37;3.07;;;25.70;28.10;;;;;;20786;6705;305874;-74
2022/05/07 12:52:09;;;;;;;2.73;2.63;;;25.90;27.30;;;;;;20811;6705;120712;-74
2022/05/07 12:54:44;;;;;;;3.30;3.00;;;25.80;28.50;;;;;;20767;6705;334910;-74
2022/05/07 12:57:20;;;;;;;3.10;2.90;;;25.80;28.40;;;;;;20979;6705;119553;-72
2022/05/07 12:59:56;;;;;;;2.40;2.30;;;25.70;28.90;;;;;;20953;6705;117550;-73
2022/05/07 13:02:35;;;;;;;2.80;2.60;;;25.40;29.10;;;;;;20979;6704;120206;-72
2022/05/07 13:05:07;;;;;;;28.70;5.17;;;25.20;29.70;;;;;;20773;6705;280400;-73
2022/05/07 13:07:43;;;;;;;3.17;2.87;;;25.30;29.00;;;;;;20745;6705;304470;-74
2022/05/07 13:10:18;;;;;;;2.90;2.70;;;25.50;27.50;;;;;;20894;6705;117040;-75
2022/05/07 13:12:55;;;;;;;3.50;2.80;;;25.10;28.60;;;;;;20962;6705;117483;-73
2022/05/07 13:15:30;;;;;;;3.80;2.80;;;25.00;28.80;;;;;;20768;6705;338668;-74
2022/05/07 13:18:06;;;;;;;9.00;3.50;;;25.00;28.90;;;;;;20666;6722;296133;-74
2022/05/07 13:20:43;;;;;;;2.87;2.70;;;25.20;28.60;;;;;;20822;6737;117139;-75
2022/05/07 13:23:18;;;;;;;2.77;2.57;;;25.00;29.30;;;;;;20912;6723;116844;-75
2022/05/07 13:25:54;;;;;;;2.30;2.20;;;24.70;29.70;;;;;;20904;6727;117062;-74
2022/05/07 13:28:29;;;;;;;3.03;2.80;;;24.30;29.80;;;;;;20911;6727;116866;-75
2022/05/07 13:31:07;;;;;;;3.30;3.00;;;24.10;29.80;;;;;;20615;6727;296222;-74
2022/05/07 13:33:41;;;;;;;2.90;2.70;;;24.20;29.00;;;;;;20840;6748;117061;-74
2022/05/07 13:36:17;;;;;;;3.40;2.90;;;24.20;29.70;;;;;;20677;6733;306733;-75
2022/05/07 13:38:52;;;;;;;3.62;2.92;;;24.30;28.00;;;;;;20760;6709;276250;-73
2022/05/07 13:41:29;;;;;;;2.70;2.50;;;24.50;28.50;;;;;;20816;6718;118991;-75
2022/05/07 13:44:10;;;;;;;3.33;2.60;;;24.50;29.00;;;;;;20654;6748;311352;-75
2022/05/07 13:46:39;;;;;;;2.83;2.53;;;24.50;28.40;;;;;;20688;6748;276666;-74
2022/05/07 13:49:15;;;;;;;2.92;2.72;;;24.70;28.40;;;;;;20707;6777;305647;-74
2022/05/07 13:51:50;;;;;;;2.43;2.23;;;24.90;28.00;;;;;;20725;6748;117699;-73
2022/05/07 13:54:27;;;;;;;3.37;2.23;;;24.70;28.80;;;;;;20953;6718;118128;-74
2022/05/07 13:57:03;;;;;;;3.40;2.60;;;24.50;29.20;;;;;;20656;6733;279437;-74